sensor_id;sensor_type;location;lat;lon;timestamp;pressure;altitude;pressure_sealevel;temperature;humidity
26807;BME280;14380;49.910;6.792;2022-10-31T00:02:13;99342.41;;;10.94;100.00
26807;BME280;14380;49.910;6.792;2022-10-31T00:04:40;99335.44;;;10.93;100.00
26807;BME280;14380;49.910;6.792;2022-10-31T00:07:06;99336.16;;;10.97;100.00
26807;BME280;14380;49.910;6.792;2022-10-31T00:09:32;99325.84;;;11.10;100.00
26807;BME280;14380;49.910;6.792;2022-10-31T00:11:59;99332.59;;;11.15;100.00
26807;BME280;14380;49.910;6.792;2022-10-31T00:14:27;99328.44;;;10.92;100.00
26807;BME280;14380;49.910;6.792;2022-10-31T00:16:53;99323.81;;;10.78;100.00
26807;BME280;14380;49.910;6.792;2022-10-31T00:19:19;99330.44;;;10.49;100.00
26807;BME280;14380;49.910;6.792;2022-10-31T00:21:46;99328.03;;;10.63;100.00
26807;BME280;14380;49.910;6.792;2022-10-31T00:24:12;99328.59;;;10.70;100.00
26807;BME280;14380;49.910;6.792;2022-10-31T00:26:38;99318.88;;;10.70;100.00
26807;BME280;14380;49.910;6.792;2022-10-31T00:29:05;99319.03;;;10.67;100.00
26807;BME280;14380;49.910;6.792;2022-10-31T00:31:33;99316.91;;;10.76;100.00
26807;BME280;14380;49.910;6.792;2022-10-31T00:33:59;99314.69;;;10.66;100.00
26807;BME280;14380;49.910;6.792;2022-10-31T00:36:28;99316.31;;;10.69;100.00
26807;BME280;14380;49.910;6.792;2022-10-31T00:38:54;99309.59;;;10.62;100.00
26807;BME280;14380;49.910;6.792;2022-10-31T00:41:21;99307.69;;;10.65;100.00
26807;BME280;14380;49.910;6.792;2022-10-31T00:43:47;99311.03;;;10.69;100.00
26807;BME280;14380;49.910;6.792;2022-10-31T00:46:13;99301.75;;;10.79;100.00
26807;BME280;14380;49.910;6.792;2022-10-31T00:48:41;99312.94;;;10.84;100.00
26807;BME280;14380;49.910;6.792;2022-10-31T00:51:08;99311.59;;;10.95;100.00
26807;BME280;14380;49.910;6.792;2022-10-31T00:53:35;99308.19;;;10.74;100.00
26807;BME280;14380;49.910;6.792;2022-10-31T00:56:01;99301.97;;;10.55;100.00
26807;BME280;14380;49.910;6.792;2022-10-31T00:58:28;99294.34;;;10.68;100.00
26807;BME280;14380;49.910;6.792;2022-10-31T01:00:54;99301.38;;;10.68;100.00
26807;BME280;14380;49.910;6.792;2022-10-31T01:03:21;99294.06;;;10.55;100.00
26807;BME280;14380;49.910;6.792;2022-10-31T01:05:56;99293.69;;;10.63;100.00
26807;BME280;14380;49.910;6.792;2022-10-31T01:08:23;99296.53;;;10.78;100.00
26807;BME280;14380;49.910;6.792;2022-10-31T01:10:57;99297.63;;;10.74;100.00
26807;BME280;14380;49.910;6.792;2022-10-31T01:13:24;99288.97;;;10.70;100.00
26807;BME280;14380;49.910;6.792;2022-10-31T01:15:53;99296.88;;;10.70;100.00
26807;BME280;14380;49.910;6.792;2022-10-31T01:18:19;99295.53;;;10.80;100.00
26807;BME280;14380;49.910;6.792;2022-10-31T01:20:46;99294.75;;;10.78;100.00
26807;BME280;14380;49.910;6.792;2022-10-31T01:23:13;99293.25;;;10.92;100.00
26807;BME280;14380;49.910;6.792;2022-10-31T01:25:40;99298.09;;;10.82;100.00
26807;BME280;14380;49.910;6.792;2022-10-31T01:28:07;99295.31;;;10.85;100.00
26807;BME280;14380;49.910;6.792;2022-10-31T01:30:33;99293.19;;;10.74;100.00
26807;BME280;14380;49.910;6.792;2022-10-31T01:33:00;99296.38;;;10.62;100.00
26807;BME280;14380;49.910;6.792;2022-10-31T01:35:26;99296.09;;;10.68;100.00
26807;BME280;14380;49.910;6.792;2022-10-31T01:37:54;99303.53;;;10.79;100.00
26807;BME280;14380;49.910;6.792;2022-10-31T01:40:22;99298.41;;;10.76;100.00
26807;BME280;14380;49.910;6.792;2022-10-31T01:42:48;99292.50;;;10.88;100.00
26807;BME280;14380;49.910;6.792;2022-10-31T01:45:14;99295.25;;;10.67;100.00
26807;BME280;14380;49.910;6.792;2022-10-31T01:47:42;99295.69;;;10.58;100.00
26807;BME280;14380;49.910;6.792;2022-10-31T01:50:11;99297.16;;;10.64;100.00
26807;BME280;14380;49.910;6.792;2022-10-31T01:52:39;99285.47;;;10.69;100.00
26807;BME280;14380;49.910;6.792;2022-10-31T01:55:07;99289.84;;;10.70;100.00
26807;BME280;14380;49.910;6.792;2022-10-31T01:57:37;99293.25;;;10.73;100.00
26807;BME280;14380;49.910;6.792;2022-10-31T02:00:07;99294.25;;;10.70;100.00
26807;BME280;14380;49.910;6.792;2022-10-31T02:02:34;99286.03;;;10.76;100.00
26807;BME280;14380;49.910;6.792;2022-10-31T02:05:01;99283.03;;;10.84;100.00
26807;BME280;14380;49.910;6.792;2022-10-31T02:07:30;99270.53;;;10.88;100.00
26807;BME280;14380;49.910;6.792;2022-10-31T02:10:00;99279.66;;;10.99;100.00
26807;BME280;14380;49.910;6.792;2022-10-31T02:12:27;99277.56;;;11.06;100.00
26807;BME280;14380;49.910;6.792;2022-10-31T02:14:55;99271.53;;;10.85;100.00
26807;BME280;14380;49.910;6.792;2022-10-31T02:17:21;99277.97;;;10.79;100.00
26807;BME280;14380;49.910;6.792;2022-10-31T02:19:50;99278.84;;;10.80;100.00
26807;BME280;14380;49.910;6.792;2022-10-31T02:22:20;99274.16;;;10.85;100.00
26807;BME280;14380;49.910;6.792;2022-10-31T02:24:52;99270.31;;;10.92;100.00
26807;BME280;14380;49.910;6.792;2022-10-31T02:27:28;99269.75;;;10.85;100.00
26807;BME280;14380;49.910;6.792;2022-10-31T02:30:05;99267.81;;;10.89;100.00
26807;BME280;14380;49.910;6.792;2022-10-31T02:32:36;99267.16;;;11.03;100.00
26807;BME280;14380;49.910;6.792;2022-10-31T02:35:08;99261.09;;;11.01;100.00
26807;BME280;14380;49.910;6.792;2022-10-31T02:37:37;99263.28;;;10.74;100.00
26807;BME280;14380;49.910;6.792;2022-10-31T02:40:10;99264.41;;;10.68;100.00
26807;BME280;14380;49.910;6.792;2022-10-31T02:42:39;99251.25;;;10.85;100.00
26807;BME280;14380;49.910;6.792;2022-10-31T02:45:11;99255.63;;;10.86;100.00
26807;BME280;14380;49.910;6.792;2022-10-31T02:47:41;99254.78;;;11.04;100.00
26807;BME280;14380;49.910;6.792;2022-10-31T02:50:08;99256.75;;;11.00;100.00
26807;BME280;14380;49.910;6.792;2022-10-31T02:52:37;99250.69;;;10.98;100.00
26807;BME280;14380;49.910;6.792;2022-10-31T02:55:10;99249.41;;;11.05;100.00
26807;BME280;14380;49.910;6.792;2022-10-31T02:57:37;99252.97;;;10.86;100.00
26807;BME280;14380;49.910;6.792;2022-10-31T03:00:05;99255.81;;;11.01;100.00
26807;BME280;14380;49.910;6.792;2022-10-31T03:02:35;99255.03;;;10.99;100.00
26807;BME280;14380;49.910;6.792;2022-10-31T03:07:53;99248.13;;;11.14;100.00
26807;BME280;14380;49.910;6.792;2022-10-31T03:10:24;99248.50;;;10.69;100.00
26807;BME280;14380;49.910;6.792;2022-10-31T03:12:59;99246.81;;;10.68;100.00
26807;BME280;14380;49.910;6.792;2022-10-31T03:15:28;99248.41;;;10.71;100.00
26807;BME280;14380;49.910;6.792;2022-10-31T03:17:57;99252.78;;;10.72;100.00
26807;BME280;14380;49.910;6.792;2022-10-31T03:20:27;99248.06;;;10.79;100.00
26807;BME280;14380;49.910;6.792;2022-10-31T03:22:57;99252.59;;;10.94;100.00
26807;BME280;14380;49.910;6.792;2022-10-31T03:25:25;99254.06;;;10.82;100.00
26807;BME280;14380;49.910;6.792;2022-10-31T03:27:52;99258.69;;;10.77;100.00
26807;BME280;14380;49.910;6.792;2022-10-31T03:30:19;99261.28;;;10.79;100.00
26807;BME280;14380;49.910;6.792;2022-10-31T03:32:47;99255.06;;;10.80;100.00
26807;BME280;14380;49.910;6.792;2022-10-31T03:35:15;99244.31;;;10.83;100.00
26807;BME280;14380;49.910;6.792;2022-10-31T03:37:43;99248.66;;;11.03;100.00
26807;BME280;14380;49.910;6.792;2022-10-31T03:40:12;99249.81;;;10.97;100.00
26807;BME280;14380;49.910;6.792;2022-10-31T03:42:41;99251.06;;;11.08;100.00
26807;BME280;14380;49.910;6.792;2022-10-31T03:45:10;99234.88;;;10.96;100.00
26807;BME280;14380;49.910;6.792;2022-10-31T03:47:38;99241.81;;;10.99;100.00
26807;BME280;14380;49.910;6.792;2022-10-31T03:50:06;99238.41;;;10.97;100.00
26807;BME280;14380;49.910;6.792;2022-10-31T03:52:34;99230.53;;;10.95;100.00
26807;BME280;14380;49.910;6.792;2022-10-31T03:55:04;99238.84;;;11.05;100.00
26807;BME280;14380;49.910;6.792;2022-10-31T03:57:33;99237.72;;;11.11;100.00
26807;BME280;14380;49.910;6.792;2022-10-31T04:00:03;99238.75;;;10.89;100.00
26807;BME280;14380;49.910;6.792;2022-10-31T04:02:30;99237.81;;;10.90;100.00
26807;BME280;14380;49.910;6.792;2022-10-31T04:04:58;99231.16;;;11.00;100.00
26807;BME280;14380;49.910;6.792;2022-10-31T04:07:25;99236.34;;;10.84;100.00
26807;BME280;14380;49.910;6.792;2022-10-31T04:09:53;99236.19;;;10.88;100.00
26807;BME280;14380;49.910;6.792;2022-10-31T04:12:19;99233.50;;;10.70;100.00
26807;BME280;14380;49.910;6.792;2022-10-31T04:14:48;99234.78;;;10.80;100.00
26807;BME280;14380;49.910;6.792;2022-10-31T04:17:16;99221.72;;;10.77;100.00
26807;BME280;14380;49.910;6.792;2022-10-31T04:19:43;99222.25;;;10.66;100.00
26807;BME280;14380;49.910;6.792;2022-10-31T04:22:10;99227.09;;;10.76;100.00
26807;BME280;14380;49.910;6.792;2022-10-31T04:24:36;99224.84;;;10.85;100.00
26807;BME280;14380;49.910;6.792;2022-10-31T04:27:04;99221.75;;;10.95;100.00
26807;BME280;14380;49.910;6.792;2022-10-31T04:29:30;99227.00;;;10.77;100.00
26807;BME280;14380;49.910;6.792;2022-10-31T04:31:58;99233.84;;;10.81;100.00
26807;BME280;14380;49.910;6.792;2022-10-31T04:34:24;99231.00;;;10.67;100.00
26807;BME280;14380;49.910;6.792;2022-10-31T04:36:51;99223.47;;;10.59;100.00
26807;BME280;14380;49.910;6.792;2022-10-31T04:39:17;99224.63;;;10.53;100.00
26807;BME280;14380;49.910;6.792;2022-10-31T04:41:44;99224.69;;;10.52;100.00
26807;BME280;14380;49.910;6.792;2022-10-31T04:44:10;99227.97;;;10.57;100.00
26807;BME280;14380;49.910;6.792;2022-10-31T04:46:36;99225.72;;;10.67;100.00
26807;BME280;14380;49.910;6.792;2022-10-31T04:49:04;99225.19;;;10.41;100.00
26807;BME280;14380;49.910;6.792;2022-10-31T04:51:31;99216.41;;;10.60;100.00
26807;BME280;14380;49.910;6.792;2022-10-31T04:53:57;99217.41;;;10.57;100.00
26807;BME280;14380;49.910;6.792;2022-10-31T04:56:23;99210.00;;;10.46;100.00
26807;BME280;14380;49.910;6.792;2022-10-31T04:58:50;99219.00;;;10.42;100.00
26807;BME280;14380;49.910;6.792;2022-10-31T05:01:16;99216.13;;;10.47;100.00
26807;BME280;14380;49.910;6.792;2022-10-31T05:03:43;99218.09;;;10.22;100.00
26807;BME280;14380;49.910;6.792;2022-10-31T05:06:13;99221.03;;;10.35;100.00
26807;BME280;14380;49.910;6.792;2022-10-31T05:08:42;99215.56;;;10.40;100.00
26807;BME280;14380;49.910;6.792;2022-10-31T05:11:08;99222.97;;;10.32;100.00
26807;BME280;14380;49.910;6.792;2022-10-31T05:13:34;99219.91;;;10.22;100.00
26807;BME280;14380;49.910;6.792;2022-10-31T05:16:01;99222.47;;;10.43;100.00
26807;BME280;14380;49.910;6.792;2022-10-31T05:18:28;99221.69;;;10.40;100.00
26807;BME280;14380;49.910;6.792;2022-10-31T05:20:54;99214.50;;;10.44;100.00
26807;BME280;14380;49.910;6.792;2022-10-31T05:23:22;99213.84;;;10.39;100.00
26807;BME280;14380;49.910;6.792;2022-10-31T05:25:48;99212.53;;;10.29;100.00
26807;BME280;14380;49.910;6.792;2022-10-31T05:28:15;99209.84;;;10.30;100.00
26807;BME280;14380;49.910;6.792;2022-10-31T05:30:41;99207.50;;;10.24;100.00
26807;BME280;14380;49.910;6.792;2022-10-31T05:33:08;99206.84;;;10.19;100.00
26807;BME280;14380;49.910;6.792;2022-10-31T05:35:34;99202.53;;;10.16;100.00
26807;BME280;14380;49.910;6.792;2022-10-31T05:38:00;99200.00;;;10.15;100.00
26807;BME280;14380;49.910;6.792;2022-10-31T05:40:28;99194.56;;;10.18;100.00
26807;BME280;14380;49.910;6.792;2022-10-31T05:42:55;99190.09;;;10.20;100.00
26807;BME280;14380;49.910;6.792;2022-10-31T05:45:23;99189.44;;;10.15;100.00
26807;BME280;14380;49.910;6.792;2022-10-31T05:47:50;99189.72;;;10.27;100.00
26807;BME280;14380;49.910;6.792;2022-10-31T05:50:17;99186.56;;;10.19;100.00
26807;BME280;14380;49.910;6.792;2022-10-31T05:52:43;99191.50;;;10.27;100.00
26807;BME280;14380;49.910;6.792;2022-10-31T05:55:10;99188.22;;;10.22;100.00
26807;BME280;14380;49.910;6.792;2022-10-31T05:57:38;99179.78;;;10.33;100.00
26807;BME280;14380;49.910;6.792;2022-10-31T06:00:05;99178.22;;;10.29;100.00
26807;BME280;14380;49.910;6.792;2022-10-31T06:02:31;99183.66;;;10.25;100.00
26807;BME280;14380;49.910;6.792;2022-10-31T06:04:59;99184.00;;;10.37;100.00
26807;BME280;14380;49.910;6.792;2022-10-31T06:07:26;99190.16;;;10.37;100.00
26807;BME280;14380;49.910;6.792;2022-10-31T06:09:52;99190.00;;;10.40;100.00
26807;BME280;14380;49.910;6.792;2022-10-31T06:12:18;99189.44;;;10.53;100.00
26807;BME280;14380;49.910;6.792;2022-10-31T06:14:46;99179.53;;;10.39;100.00
26807;BME280;14380;49.910;6.792;2022-10-31T06:17:13;99184.16;;;10.34;100.00
26807;BME280;14380;49.910;6.792;2022-10-31T06:19:39;99180.81;;;10.49;100.00
26807;BME280;14380;49.910;6.792;2022-10-31T06:22:05;99179.44;;;10.40;100.00
26807;BME280;14380;49.910;6.792;2022-10-31T06:24:32;99185.44;;;10.63;100.00
26807;BME280;14380;49.910;6.792;2022-10-31T06:26:58;99188.88;;;10.46;100.00
26807;BME280;14380;49.910;6.792;2022-10-31T06:29:25;99191.28;;;10.32;100.00
26807;BME280;14380;49.910;6.792;2022-10-31T06:31:53;99186.78;;;10.34;100.00
26807;BME280;14380;49.910;6.792;2022-10-31T06:34:19;99197.13;;;10.19;100.00
26807;BME280;14380;49.910;6.792;2022-10-31T06:36:46;99193.78;;;10.16;100.00
26807;BME280;14380;49.910;6.792;2022-10-31T06:39:12;99196.19;;;10.20;100.00
26807;BME280;14380;49.910;6.792;2022-10-31T06:41:39;99192.59;;;10.42;100.00
26807;BME280;14380;49.910;6.792;2022-10-31T06:44:06;99187.66;;;10.53;100.00
26807;BME280;14380;49.910;6.792;2022-10-31T06:46:33;99185.97;;;10.70;100.00
26807;BME280;14380;49.910;6.792;2022-10-31T06:49:01;99186.06;;;10.68;100.00
26807;BME280;14380;49.910;6.792;2022-10-31T06:51:27;99186.56;;;10.38;100.00
26807;BME280;14380;49.910;6.792;2022-10-31T06:53:53;99182.63;;;10.66;100.00
26807;BME280;14380;49.910;6.792;2022-10-31T06:56:20;99181.88;;;10.82;100.00
26807;BME280;14380;49.910;6.792;2022-10-31T06:58:46;99195.91;;;10.65;100.00
26807;BME280;14380;49.910;6.792;2022-10-31T07:01:12;99200.19;;;10.67;100.00
26807;BME280;14380;49.910;6.792;2022-10-31T07:03:39;99194.34;;;10.61;100.00
26807;BME280;14380;49.910;6.792;2022-10-31T07:06:07;99195.41;;;10.76;100.00
26807;BME280;14380;49.910;6.792;2022-10-31T07:08:33;99199.91;;;10.74;100.00
26807;BME280;14380;49.910;6.792;2022-10-31T07:11:00;99199.41;;;10.83;100.00
26807;BME280;14380;49.910;6.792;2022-10-31T07:13:26;99189.03;;;10.97;100.00
26807;BME280;14380;49.910;6.792;2022-10-31T07:15:53;99196.09;;;11.14;100.00
26807;BME280;14380;49.910;6.792;2022-10-31T07:18:20;99197.97;;;11.12;100.00
26807;BME280;14380;49.910;6.792;2022-10-31T07:20:46;99202.31;;;11.13;100.00
26807;BME280;14380;49.910;6.792;2022-10-31T07:23:14;99198.75;;;11.14;100.00
26807;BME280;14380;49.910;6.792;2022-10-31T07:25:41;99196.88;;;11.16;100.00
26807;BME280;14380;49.910;6.792;2022-10-31T07:28:08;99202.78;;;11.22;100.00
26807;BME280;14380;49.910;6.792;2022-10-31T07:30:36;99195.09;;;11.35;100.00
26807;BME280;14380;49.910;6.792;2022-10-31T07:33:02;99204.66;;;11.37;100.00
26807;BME280;14380;49.910;6.792;2022-10-31T07:35:31;99199.53;;;11.34;100.00
26807;BME280;14380;49.910;6.792;2022-10-31T07:38:05;99202.56;;;11.44;100.00
26807;BME280;14380;49.910;6.792;2022-10-31T07:40:34;99205.81;;;11.49;100.00
26807;BME280;14380;49.910;6.792;2022-10-31T07:43:00;99207.38;;;11.53;100.00
26807;BME280;14380;49.910;6.792;2022-10-31T07:45:26;99211.19;;;11.81;100.00
26807;BME280;14380;49.910;6.792;2022-10-31T07:47:53;99200.28;;;11.54;100.00
26807;BME280;14380;49.910;6.792;2022-10-31T07:50:20;99213.16;;;11.78;100.00
26807;BME280;14380;49.910;6.792;2022-10-31T07:52:46;99205.81;;;12.00;100.00
26807;BME280;14380;49.910;6.792;2022-10-31T07:55:13;99205.88;;;11.99;100.00
26807;BME280;14380;49.910;6.792;2022-10-31T07:57:41;99211.38;;;11.94;100.00
26807;BME280;14380;49.910;6.792;2022-10-31T08:00:08;99197.88;;;12.16;100.00
26807;BME280;14380;49.910;6.792;2022-10-31T08:02:35;99202.06;;;12.20;100.00
26807;BME280;14380;49.910;6.792;2022-10-31T08:05:02;99194.56;;;12.45;100.00
26807;BME280;14380;49.910;6.792;2022-10-31T08:07:28;99193.19;;;12.38;100.00
26807;BME280;14380;49.910;6.792;2022-10-31T08:09:55;99192.50;;;12.50;100.00
26807;BME280;14380;49.910;6.792;2022-10-31T08:12:21;99196.88;;;12.35;100.00
26807;BME280;14380;49.910;6.792;2022-10-31T08:14:49;99192.78;;;12.45;100.00
26807;BME280;14380;49.910;6.792;2022-10-31T08:17:16;99195.16;;;12.50;100.00
26807;BME280;14380;49.910;6.792;2022-10-31T08:19:42;99192.84;;;12.60;100.00
26807;BME280;14380;49.910;6.792;2022-10-31T08:22:08;99186.50;;;12.78;100.00
26807;BME280;14380;49.910;6.792;2022-10-31T08:24:35;99179.00;;;12.71;100.00
26807;BME280;14380;49.910;6.792;2022-10-31T08:27:01;99176.50;;;13.14;100.00
26807;BME280;14380;49.910;6.792;2022-10-31T08:29:28;99177.91;;;13.20;100.00
26807;BME280;14380;49.910;6.792;2022-10-31T08:31:55;99174.19;;;13.53;100.00
26807;BME280;14380;49.910;6.792;2022-10-31T08:34:23;99180.50;;;12.91;100.00
26807;BME280;14380;49.910;6.792;2022-10-31T08:36:50;99172.97;;;13.14;100.00
26807;BME280;14380;49.910;6.792;2022-10-31T08:39:16;99174.84;;;12.97;100.00
26807;BME280;14380;49.910;6.792;2022-10-31T08:41:43;99172.13;;;13.28;100.00
26807;BME280;14380;49.910;6.792;2022-10-31T08:44:09;99171.38;;;13.42;100.00
26807;BME280;14380;49.910;6.792;2022-10-31T08:46:35;99164.78;;;13.33;100.00
26807;BME280;14380;49.910;6.792;2022-10-31T08:49:03;99169.66;;;13.55;100.00
26807;BME280;14380;49.910;6.792;2022-10-31T08:51:30;99167.88;;;13.56;100.00
26807;BME280;14380;49.910;6.792;2022-10-31T08:53:56;99157.81;;;13.46;100.00
26807;BME280;14380;49.910;6.792;2022-10-31T08:56:22;99158.38;;;13.80;100.00
26807;BME280;14380;49.910;6.792;2022-10-31T08:58:49;99159.25;;;13.81;100.00
26807;BME280;14380;49.910;6.792;2022-10-31T09:01:16;99155.94;;;13.63;100.00
26807;BME280;14380;49.910;6.792;2022-10-31T09:03:42;99153.38;;;13.90;100.00
26807;BME280;14380;49.910;6.792;2022-10-31T09:06:10;99145.94;;;14.10;100.00
26807;BME280;14380;49.910;6.792;2022-10-31T09:08:36;99143.59;;;14.05;100.00
26807;BME280;14380;49.910;6.792;2022-10-31T09:11:03;99144.78;;;14.14;100.00
26807;BME280;14380;49.910;6.792;2022-10-31T09:13:31;99135.94;;;14.28;100.00
26807;BME280;14380;49.910;6.792;2022-10-31T09:15:58;99141.97;;;14.45;100.00
26807;BME280;14380;49.910;6.792;2022-10-31T09:18:24;99133.31;;;14.41;100.00
26807;BME280;14380;49.910;6.792;2022-10-31T09:20:53;99133.28;;;14.55;100.00
26807;BME280;14380;49.910;6.792;2022-10-31T09:23:21;99126.47;;;14.79;100.00
26807;BME280;14380;49.910;6.792;2022-10-31T09:25:48;99123.94;;;14.77;100.00
26807;BME280;14380;49.910;6.792;2022-10-31T09:28:16;99117.69;;;15.04;100.00
26807;BME280;14380;49.910;6.792;2022-10-31T09:30:45;99116.94;;;14.89;100.00
26807;BME280;14380;49.910;6.792;2022-10-31T09:33:12;99115.97;;;15.03;100.00
26807;BME280;14380;49.910;6.792;2022-10-31T09:35:39;99115.25;;;15.14;100.00
26807;BME280;14380;49.910;6.792;2022-10-31T09:38:06;99118.16;;;14.83;100.00
26807;BME280;14380;49.910;6.792;2022-10-31T09:40:36;99114.41;;;15.00;100.00
26807;BME280;14380;49.910;6.792;2022-10-31T09:43:06;99114.63;;;15.10;100.00
26807;BME280;14380;49.910;6.792;2022-10-31T09:45:36;99113.97;;;15.32;100.00
26807;BME280;14380;49.910;6.792;2022-10-31T09:48:09;99111.63;;;15.02;100.00
26807;BME280;14380;49.910;6.792;2022-10-31T09:50:43;99111.50;;;15.55;100.00
26807;BME280;14380;49.910;6.792;2022-10-31T09:53:15;99102.78;;;15.40;100.00
26807;BME280;14380;49.910;6.792;2022-10-31T09:55:45;99099.13;;;15.80;100.00
26807;BME280;14380;49.910;6.792;2022-10-31T09:58:13;99104.56;;;15.79;100.00
26807;BME280;14380;49.910;6.792;2022-10-31T10:00:41;99107.28;;;16.03;100.00
26807;BME280;14380;49.910;6.792;2022-10-31T10:03:10;99104.09;;;16.11;100.00
26807;BME280;14380;49.910;6.792;2022-10-31T10:05:39;99103.09;;;15.61;100.00
26807;BME280;14380;49.910;6.792;2022-10-31T10:08:10;99096.56;;;15.79;100.00
26807;BME280;14380;49.910;6.792;2022-10-31T10:10:41;99104.91;;;15.74;100.00
26807;BME280;14380;49.910;6.792;2022-10-31T10:13:16;99105.94;;;15.97;100.00
26807;BME280;14380;49.910;6.792;2022-10-31T10:15:50;99098.25;;;15.93;100.00
26807;BME280;14380;49.910;6.792;2022-10-31T10:18:23;99097.91;;;16.10;100.00
26807;BME280;14380;49.910;6.792;2022-10-31T10:20:58;99096.59;;;16.16;100.00
26807;BME280;14380;49.910;6.792;2022-10-31T10:23:32;99092.31;;;16.26;100.00
26807;BME280;14380;49.910;6.792;2022-10-31T10:26:02;99095.09;;;16.49;100.00
26807;BME280;14380;49.910;6.792;2022-10-31T10:28:35;99089.41;;;16.54;100.00
26807;BME280;14380;49.910;6.792;2022-10-31T10:31:05;99096.56;;;16.53;100.00
26807;BME280;14380;49.910;6.792;2022-10-31T10:33:34;99091.75;;;16.70;100.00
26807;BME280;14380;49.910;6.792;2022-10-31T10:36:03;99080.13;;;16.71;100.00
26807;BME280;14380;49.910;6.792;2022-10-31T10:38:33;99076.50;;;16.72;100.00
26807;BME280;14380;49.910;6.792;2022-10-31T10:41:02;99071.72;;;16.88;100.00
26807;BME280;14380;49.910;6.792;2022-10-31T10:43:32;99076.25;;;16.75;100.00
26807;BME280;14380;49.910;6.792;2022-10-31T10:46:03;99076.03;;;16.78;100.00
26807;BME280;14380;49.910;6.792;2022-10-31T10:48:50;99065.34;;;17.02;100.00
26807;BME280;14380;49.910;6.792;2022-10-31T10:51:21;99065.59;;;17.11;100.00
26807;BME280;14380;49.910;6.792;2022-10-31T10:53:58;99069.25;;;17.21;100.00
26807;BME280;14380;49.910;6.792;2022-10-31T10:56:35;99061.84;;;17.24;100.00
26807;BME280;14380;49.910;6.792;2022-10-31T10:59:03;99060.66;;;17.40;100.00
26807;BME280;14380;49.910;6.792;2022-10-31T11:01:31;99058.69;;;17.31;100.00
26807;BME280;14380;49.910;6.792;2022-10-31T11:03:57;99059.41;;;17.21;100.00
26807;BME280;14380;49.910;6.792;2022-10-31T11:06:24;99059.53;;;17.31;100.00
26807;BME280;14380;49.910;6.792;2022-10-31T11:08:51;99044.97;;;17.35;100.00
26807;BME280;14380;49.910;6.792;2022-10-31T11:11:22;99043.03;;;17.49;100.00
26807;BME280;14380;49.910;6.792;2022-10-31T11:13:51;99040.47;;;17.59;100.00
26807;BME280;14380;49.910;6.792;2022-10-31T11:16:27;99038.78;;;17.58;100.00
26807;BME280;14380;49.910;6.792;2022-10-31T11:19:04;99028.34;;;17.66;100.00
26807;BME280;14380;49.910;6.792;2022-10-31T11:21:31;99036.84;;;17.60;100.00
26807;BME280;14380;49.910;6.792;2022-10-31T11:24:03;99035.28;;;17.57;100.00
26807;BME280;14380;49.910;6.792;2022-10-31T11:26:29;99035.88;;;17.49;100.00
26807;BME280;14380;49.910;6.792;2022-10-31T11:28:56;99032.38;;;17.37;100.00
26807;BME280;14380;49.910;6.792;2022-10-31T11:31:23;99020.84;;;17.37;100.00
26807;BME280;14380;49.910;6.792;2022-10-31T11:33:52;99019.88;;;17.38;100.00
26807;BME280;14380;49.910;6.792;2022-10-31T11:36:24;99003.84;;;17.49;100.00
26807;BME280;14380;49.910;6.792;2022-10-31T11:38:52;98988.69;;;17.50;100.00
26807;BME280;14380;49.910;6.792;2022-10-31T11:41:19;98986.44;;;17.78;100.00
26807;BME280;14380;49.910;6.792;2022-10-31T11:43:50;98992.13;;;17.84;100.00
26807;BME280;14380;49.910;6.792;2022-10-31T11:46:19;98985.75;;;18.41;100.00
26807;BME280;14380;49.910;6.792;2022-10-31T11:48:46;98985.25;;;18.15;100.00
26807;BME280;14380;49.910;6.792;2022-10-31T11:51:19;98983.91;;;18.41;100.00
26807;BME280;14380;49.910;6.792;2022-10-31T11:53:51;98982.09;;;18.42;100.00
26807;BME280;14380;49.910;6.792;2022-10-31T11:56:18;98968.56;;;18.22;100.00
26807;BME280;14380;49.910;6.792;2022-10-31T11:58:54;98966.63;;;18.46;100.00
26807;BME280;14380;49.910;6.792;2022-10-31T12:01:22;98973.66;;;18.25;100.00
26807;BME280;14380;49.910;6.792;2022-10-31T12:03:51;98972.03;;;18.34;100.00
26807;BME280;14380;49.910;6.792;2022-10-31T12:06:21;98969.34;;;18.34;100.00
26807;BME280;14380;49.910;6.792;2022-10-31T12:08:48;98959.31;;;18.48;100.00
26807;BME280;14380;49.910;6.792;2022-10-31T12:11:24;98955.47;;;18.19;100.00
26807;BME280;14380;49.910;6.792;2022-10-31T12:13:57;98954.84;;;18.27;100.00
26807;BME280;14380;49.910;6.792;2022-10-31T12:16:26;98943.03;;;17.97;100.00
26807;BME280;14380;49.910;6.792;2022-10-31T12:18:58;98944.13;;;18.06;100.00
26807;BME280;14380;49.910;6.792;2022-10-31T12:21:49;98935.97;;;18.07;100.00
26807;BME280;14380;49.910;6.792;2022-10-31T12:24:22;98938.44;;;18.20;100.00
26807;BME280;14380;49.910;6.792;2022-10-31T12:26:57;98932.22;;;17.98;100.00
26807;BME280;14380;49.910;6.792;2022-10-31T12:29:34;98929.91;;;17.94;100.00
26807;BME280;14380;49.910;6.792;2022-10-31T12:32:08;98935.06;;;18.39;100.00
26807;BME280;14380;49.910;6.792;2022-10-31T12:34:49;98938.59;;;18.19;100.00
26807;BME280;14380;49.910;6.792;2022-10-31T12:37:24;98929.00;;;18.16;100.00
26807;BME280;14380;49.910;6.792;2022-10-31T12:39:55;98926.16;;;18.29;100.00
26807;BME280;14380;49.910;6.792;2022-10-31T12:42:31;98926.66;;;18.23;100.00
26807;BME280;14380;49.910;6.792;2022-10-31T12:47:58;98902.34;;;18.26;100.00
26807;BME280;14380;49.910;6.792;2022-10-31T12:50:33;98897.63;;;18.39;100.00
26807;BME280;14380;49.910;6.792;2022-10-31T12:53:07;98903.84;;;18.19;100.00
26807;BME280;14380;49.910;6.792;2022-10-31T12:55:46;98894.13;;;18.18;100.00
26807;BME280;14380;49.910;6.792;2022-10-31T12:58:20;98887.72;;;18.51;100.00
26807;BME280;14380;49.910;6.792;2022-10-31T13:00:49;98880.53;;;18.52;100.00
26807;BME280;14380;49.910;6.792;2022-10-31T13:03:22;98879.34;;;18.66;100.00